Time;durP1;ratioP1;P1;durP2;ratioP2;P2;SDS_P1;SDS_P2;PMS_P1;PMS_P2;Temp;Humidity;BMP_temperature;BMP_pressure;BME280_temperature;BME280_humidity;BME280_pressure;Samples;Min_cycle;Max_cycle;Signal;HPM_P1;HPM_P2
2022/01/09 00:01:10;;;;;;;86.23;48.47;;;5.30;99.90;;;;;;6105426;23;20146;-83
2022/01/09 00:03:36;;;;;;;80.03;40.63;;;5.40;99.90;;;;;;6131738;23;20147;-84
2022/01/09 00:06:02;;;;;;;84.67;54.77;;;5.40;99.90;;;;;;6131211;23;20374;-83
2022/01/09 00:08:27;;;;;;;77.77;37.20;;;5.30;99.90;;;;;;6105716;23;20162;-84
2022/01/09 00:10:53;;;;;;;79.87;42.63;;;5.30;99.90;;;;;;6131492;23;20197;-83
2022/01/09 00:13:19;;;;;;;77.13;35.50;;;5.40;99.90;;;;;;6131810;23;20166;-82
2022/01/09 00:15:44;;;;;;;81.17;45.77;;;5.30;99.90;;;;;;6105900;23;20232;-84
2022/01/09 00:18:10;;;;;;;82.50;50.27;;;5.40;99.90;;;;;;6105953;23;20216;-84
2022/01/09 00:20:36;;;;;;;83.70;53.17;;;5.40;99.90;;;;;;6131637;23;20146;-84
2022/01/09 00:23:02;;;;;;;80.67;44.97;;;5.30;99.90;;;;;;6131833;23;20678;-84
2022/01/09 00:25:28;;;;;;;80.77;45.10;;;5.30;99.90;;;;;;6132004;23;20189;-84
2022/01/09 00:27:54;;;;;;;82.70;50.08;;;5.30;99.90;;;;;;6131846;23;20618;-84
2022/01/09 00:30:22;;;;;;;85.88;59.13;;;5.30;99.90;;;;;;6105529;23;20597;-83
2022/01/09 00:32:48;;;;;;;83.90;47.72;;;5.30;99.90;;;;;;6131395;23;20213;-82
2022/01/09 00:35:15;;;;;;;85.45;58.10;;;5.30;99.90;;;;;;6105482;23;20197;-84
2022/01/09 00:37:41;;;;;;;83.70;53.15;;;5.30;99.90;;;;;;6105721;23;20154;-83
2022/01/09 00:40:09;;;;;;;94.90;69.47;;;5.30;99.90;;;;;;6105803;23;20598;-84
2022/01/09 00:42:35;;;;;;;86.38;60.88;;;5.30;99.90;;;;;;6132120;23;20524;-84
2022/01/09 00:45:01;;;;;;;85.50;56.23;;;5.30;99.90;;;;;;6105956;23;20182;-84
2022/01/09 00:47:26;;;;;;;88.47;68.57;;;5.30;99.90;;;;;;6106118;23;20157;-84
2022/01/09 00:49:52;;;;;;;86.20;62.03;;;5.30;99.90;;;;;;6106823;23;20464;-84
2022/01/09 00:52:18;;;;;;;90.13;69.53;;;5.30;99.90;;;;;;6131317;23;20149;-85
2022/01/09 00:54:44;;;;;;;95.50;74.27;;;5.30;99.90;;;;;;6131952;23;20632;-85
2022/01/09 00:57:10;;;;;;;98.75;86.03;;;5.30;99.90;;;;;;6131484;23;20389;-84
2022/01/09 00:59:35;;;;;;;90.03;72.90;;;5.30;99.90;;;;;;6131456;23;20213;-84
2022/01/09 01:02:01;;;;;;;90.53;75.73;;;5.30;99.90;;;;;;6105699;23;20158;-84
2022/01/09 01:04:27;;;;;;;98.80;88.33;;;5.30;99.90;;;;;;6132372;23;20162;-85
2022/01/09 01:06:53;;;;;;;87.37;65.90;;;5.30;99.90;;;;;;6132250;23;20170;-85
2022/01/09 01:09:20;;;;;;;92.30;80.60;;;5.20;99.90;;;;;;6131086;23;20150;-85
2022/01/09 01:11:47;;;;;;;89.22;70.95;;;5.30;99.90;;;;;;6132109;23;20142;-85
2022/01/09 01:14:13;;;;;;;92.05;79.97;;;5.30;99.90;;;;;;6132178;23;20199;-85
2022/01/09 01:16:39;;;;;;;88.85;68.90;;;5.20;99.90;;;;;;6131740;23;20150;-86
2022/01/09 01:19:06;;;;;;;90.13;76.30;;;5.20;99.90;;;;;;6106395;23;20150;-85
2022/01/09 01:21:33;;;;;;;103.40;92.32;;;5.20;99.90;;;;;;6125966;23;20547;-83
2022/01/09 01:23:59;;;;;;;129.00;117.60;;;5.30;99.90;;;;;;6103736;23;20213;-85
2022/01/09 01:26:25;;;;;;;125.87;114.47;;;5.20;99.90;;;;;;6130320;23;20477;-85
2022/01/09 01:28:50;;;;;;;98.30;87.90;;;5.20;99.90;;;;;;6104797;23;20151;-85
2022/01/09 01:31:16;;;;;;;96.57;86.20;;;5.20;99.90;;;;;;6104584;23;20162;-86
2022/01/09 01:33:44;;;;;;;110.67;99.97;;;5.20;99.90;;;;;;6130496;23;20185;-85
2022/01/09 01:36:10;;;;;;;96.43;86.00;;;5.10;99.90;;;;;;6130954;23;20205;-85
2022/01/09 01:38:56;;;;;;;94.17;83.93;;;5.10;99.90;;;;;;6130444;23;20139;-86
2022/01/09 01:42:07;;;;;;;107.55;96.78;;;5.10;99.90;;;;;;6131149;23;20636;-85
2022/01/09 01:44:46;;;;;;;138.02;125.85;;;5.10;99.90;;;;;;6132866;23;20166;-84
2022/01/09 01:50:46;;;;;;;299.88;279.23;;;5.10;99.90;;;;;;5964084;23;20150;-85
2022/01/09 01:53:16;;;;;;;104.32;93.15;;;5.20;99.90;;;;;;6059498;23;20178;-84
2022/01/09 01:55:44;;;;;;;91.80;77.88;;;5.20;99.90;;;;;;6132112;23;20609;-84
2022/01/09 01:58:13;;;;;;;126.88;114.88;;;5.30;99.90;;;;;;6106725;23;20154;-86
2022/01/09 02:01:17;;;;;;;122.00;110.35;;;5.30;99.90;;;;;;6106709;23;20171;-85
2022/01/09 02:06:56;;;;;;;250.18;233.30;;;5.50;99.90;;;;;;6131259;23;20477;-85
2022/01/09 02:09:27;;;;;;;136.07;124.03;;;5.60;99.90;;;;;;6105681;23;20150;-85
2022/01/09 02:11:53;;;;;;;326.15;306.52;;;5.70;99.90;;;;;;6131485;23;20198;-86
2022/01/09 02:14:31;;;;;;;177.53;163.83;;;5.70;99.90;;;;;;6130536;23;20203;-86
2022/01/09 02:16:56;;;;;;;447.98;415.90;;;5.60;99.90;;;;;;6102992;23;20142;-86
2022/01/09 02:19:24;;;;;;;100.13;89.47;;;5.60;99.90;;;;;;6128945;23;20139;-86
2022/01/09 02:21:55;;;;;;;136.18;124.18;;;5.50;99.90;;;;;;6127968;23;20158;-86
2022/01/09 02:24:23;;;;;;;265.35;247.57;;;5.50;99.90;;;;;;6128527;23;20169;-87
2022/01/09 02:26:58;;;;;;;319.13;297.77;;;5.50;99.90;;;;;;6102792;23;20592;-86
2022/01/09 02:29:27;;;;;;;116.80;105.80;;;5.40;99.90;;;;;;6128185;23;20588;-86
2022/01/09 02:32:15;;;;;;;165.18;152.25;;;5.40;99.90;;;;;;6128687;23;20147;-86
2022/01/09 02:34:46;;;;;;;123.40;111.75;;;5.20;99.90;;;;;;6101968;23;20265;-86
2022/01/09 02:37:11;;;;;;;236.07;218.30;;;5.20;99.90;;;;;;6103204;23;20158;-86
2022/01/09 02:39:53;;;;;;;176.83;163.37;;;5.20;99.90;;;;;;6102448;23;20151;-87
2022/01/09 02:42:25;;;;;;;202.25;186.60;;;5.20;99.90;;;;;;6103156;23;20371;-86
2022/01/09 02:44:59;;;;;;;141.75;129.55;;;5.10;99.90;;;;;;6128770;23;20169;-86
2022/01/09 02:47:36;;;;;;;272.55;254.48;;;5.00;99.90;;;;;;6129293;23;20149;-86
2022/01/09 02:50:12;;;;;;;348.63;325.80;;;5.00;99.90;;;;;;6103785;23;20158;-86
2022/01/09 02:53:12;;;;;;;333.48;311.70;;;5.00;99.90;;;;;;6129376;23;20190;-86
2022/01/09 02:56:15;;;;;;;149.80;137.18;;;4.90;99.90;;;;;;6103098;23;20184;-86
2022/01/09 02:58:49;;;;;;;202.43;187.88;;;4.90;99.90;;;;;;6129400;23;20235;-86
2022/01/09 03:01:18;;;;;;;161.70;148.63;;;4.90;99.90;;;;;;6129072;23;20127;-86
2022/01/09 03:03:44;;;;;;;178.32;164.77;;;5.00;99.90;;;;;;6103958;23;20196;-86
2022/01/09 03:06:13;;;;;;;118.53;107.20;;;5.00;99.90;;;;;;6128969;23;20139;-86
2022/01/09 03:08:38;;;;;;;353.92;328.67;;;5.00;99.90;;;;;;6129625;23;20449;-86
2022/01/09 03:11:07;;;;;;;194.40;180.43;;;5.10;99.90;;;;;;6104332;23;20151;-86
2022/01/09 03:13:33;;;;;;;117.80;106.57;;;5.10;99.90;;;;;;6128240;23;20919;-86
2022/01/09 03:15:59;;;;;;;225.00;207.80;;;5.20;99.90;;;;;;6105081;23;20151;-86
2022/01/09 03:18:27;;;;;;;200.20;185.83;;;5.20;99.90;;;;;;6128991;23;20856;-86
2022/01/09 03:20:53;;;;;;;200.38;184.68;;;5.20;99.90;;;;;;6103711;23;20154;-86
2022/01/09 03:23:19;;;;;;;222.20;206.80;;;5.20;99.90;;;;;;6102525;23;20620;-86
2022/01/09 03:25:44;;;;;;;537.97;499.83;;;5.30;99.90;;;;;;6129050;23;20257;-86
2022/01/09 03:28:10;;;;;;;122.67;110.90;;;5.30;99.90;;;;;;6103854;23;20205;-86
2022/01/09 03:30:36;;;;;;;164.17;150.27;;;5.30;99.90;;;;;;6130801;23;20149;-86
2022/01/09 03:33:02;;;;;;;224.10;207.80;;;5.40;99.90;;;;;;6131266;23;20234;-86
2022/01/09 03:35:29;;;;;;;249.90;232.40;;;5.30;99.90;;;;;;6129744;23;20923;-86
2022/01/09 03:37:55;;;;;;;198.23;184.02;;;5.30;99.90;;;;;;6103996;23;20139;-86
2022/01/09 03:40:24;;;;;;;204.45;189.13;;;5.30;99.90;;;;;;6130680;23;20150;-87
2022/01/09 03:42:51;;;;;;;137.60;125.10;;;5.30;99.90;;;;;;6107936;23;20147;-87
2022/01/09 03:45:18;;;;;;;146.40;133.18;;;5.30;99.90;;;;;;6107929;23;20173;-87
2022/01/09 03:47:44;;;;;;;246.95;229.80;;;5.30;99.90;;;;;;6107235;23;20166;-86
2022/01/09 03:50:11;;;;;;;175.50;161.47;;;5.30;99.90;;;;;;6133609;23;20596;-86
2022/01/09 03:52:41;;;;;;;133.27;121.00;;;5.30;99.90;;;;;;6106722;23;20745;-86
2022/01/09 03:55:08;;;;;;;103.03;89.25;;;5.40;99.90;;;;;;6105157;23;20174;-87
2022/01/09 03:57:34;;;;;;;114.88;103.10;;;5.40;99.90;;;;;;6130442;23;20139;-86
2022/01/09 04:00:00;;;;;;;254.90;237.90;;;5.40;99.90;;;;;;6131165;23;20147;-86
2022/01/09 04:02:29;;;;;;;164.40;150.73;;;5.40;99.90;;;;;;6129647;23;20149;-86
2022/01/09 04:04:54;;;;;;;195.50;180.20;;;5.40;99.90;;;;;;6130775;23;20382;-86
2022/01/09 04:07:20;;;;;;;147.20;133.93;;;5.40;99.90;;;;;;6130564;23;20156;-86
2022/01/09 04:09:47;;;;;;;153.57;140.17;;;5.40;99.90;;;;;;6130467;23;20339;-86
2022/01/09 04:12:16;;;;;;;159.38;144.95;;;5.50;99.90;;;;;;6104347;23;20886;-86
2022/01/09 04:14:44;;;;;;;114.47;102.65;;;5.50;99.90;;;;;;6132614;23;20263;-86
2022/01/09 04:17:41;;;;;;;186.43;171.18;;;5.50;99.90;;;;;;6132726;23;20143;-86
2022/01/09 04:20:08;;;;;;;100.30;89.40;;;5.60;99.90;;;;;;6107486;23;20221;-86
2022/01/09 04:22:34;;;;;;;125.10;113.18;;;5.60;99.90;;;;;;6134913;23;20157;-87
2022/01/09 04:25:00;;;;;;;111.90;99.87;;;5.60;99.90;;;;;;6133237;23;20170;-87
2022/01/09 04:27:26;;;;;;;111.27;99.33;;;5.60;99.90;;;;;;6133454;23;20371;-86
2022/01/09 04:29:51;;;;;;;120.10;107.63;;;5.60;99.90;;;;;;6107526;23;20383;-85
2022/01/09 04:32:17;;;;;;;140.23;126.73;;;5.60;99.90;;;;;;6133580;23;20875;-85
2022/01/09 04:34:43;;;;;;;130.97;118.33;;;5.70;99.90;;;;;;6132797;23;20205;-86
2022/01/09 04:37:08;;;;;;;200.43;185.10;;;5.70;99.90;;;;;;6133541;23;20166;-85
2022/01/09 04:39:34;;;;;;;107.57;87.37;;;5.70;99.90;;;;;;6133473;23;20142;-86
2022/01/09 04:42:00;;;;;;;153.20;139.00;;;5.70;99.90;;;;;;6107905;23;20143;-85
2022/01/09 04:44:26;;;;;;;235.80;218.67;;;5.80;99.90;;;;;;6133103;23;20209;-84
2022/01/09 04:46:58;;;;;;;198.70;182.50;;;5.70;99.90;;;;;;6107120;23;20386;-84
2022/01/09 04:49:27;;;;;;;167.38;153.45;;;5.80;99.90;;;;;;6107722;23;20134;-85
2022/01/09 04:51:54;;;;;;;198.55;183.00;;;5.80;99.90;;;;;;6107981;23;20158;-85
2022/01/09 04:54:19;;;;;;;165.40;151.50;;;5.80;99.90;;;;;;6133997;23;20185;-85
2022/01/09 04:56:45;;;;;;;161.77;148.30;;;5.80;99.90;;;;;;6108160;23;20150;-85
2022/01/09 04:59:11;;;;;;;126.53;113.80;;;5.80;99.90;;;;;;6108031;23;20153;-85
2022/01/09 05:01:36;;;;;;;104.67;78.83;;;5.80;99.90;;;;;;6133167;23;20149;-86
2022/01/09 05:04:02;;;;;;;144.20;130.20;;;5.80;99.90;;;;;;6106920;23;20166;-86
2022/01/09 05:06:28;;;;;;;89.17;59.80;;;5.80;99.90;;;;;;6108383;23;20150;-85
2022/01/09 05:08:53;;;;;;;234.87;216.90;;;5.80;99.90;;;;;;6132963;23;20382;-86
2022/01/09 05:11:19;;;;;;;138.73;126.03;;;5.70;99.90;;;;;;6133000;23;20147;-85
2022/01/09 05:13:45;;;;;;;129.60;116.30;;;5.80;99.90;;;;;;6132615;23;20629;-85
2022/01/09 05:16:10;;;;;;;116.77;104.63;;;5.80;99.90;;;;;;6107755;23;20154;-85
2022/01/09 05:18:50;;;;;;;106.60;94.03;;;5.70;99.90;;;;;;6107474;23;20150;-86
2022/01/09 05:21:16;;;;;;;100.00;82.55;;;5.70;99.90;;;;;;6106851;23;20374;-85
2022/01/09 05:23:42;;;;;;;100.70;89.00;;;5.70;99.90;;;;;;6107612;23;20167;-85
2022/01/09 05:26:08;;;;;;;107.55;95.63;;;5.80;99.90;;;;;;6133594;23;20150;-85
2022/01/09 05:28:34;;;;;;;112.97;94.10;;;5.80;99.90;;;;;;6133105;23;20146;-85
2022/01/09 05:31:00;;;;;;;209.17;192.67;;;5.80;99.90;;;;;;6132719;23;20166;-85
2022/01/09 05:33:25;;;;;;;134.97;121.80;;;5.80;99.90;;;;;;6133397;23;20406;-85
2022/01/09 05:35:51;;;;;;;100.40;76.43;;;5.70;99.90;;;;;;6108483;23;20174;-85
2022/01/09 05:38:20;;;;;;;105.83;94.67;;;5.80;99.90;;;;;;6107783;23;20382;-85
2022/01/09 05:40:46;;;;;;;94.70;80.18;;;5.80;99.90;;;;;;6107221;23;20177;-85
2022/01/09 05:43:15;;;;;;;109.03;97.75;;;5.70;99.90;;;;;;6107022;23;20178;-85
2022/01/09 05:45:41;;;;;;;120.07;76.80;;;5.70;99.90;;;;;;6107414;23;20170;-85
2022/01/09 05:48:07;;;;;;;100.13;87.50;;;5.70;99.90;;;;;;6133320;23;20603;-85
2022/01/09 05:50:34;;;;;;;221.90;206.23;;;5.80;99.90;;;;;;6106986;23;20150;-85
2022/01/09 05:53:00;;;;;;;112.88;85.45;;;5.80;99.90;;;;;;6133556;23;20154;-85
2022/01/09 05:55:26;;;;;;;97.43;73.18;;;5.80;99.90;;;;;;6132653;23;20169;-85
2022/01/09 05:57:52;;;;;;;136.80;123.53;;;5.80;99.90;;;;;;6131962;23;20135;-85
2022/01/09 06:00:18;;;;;;;134.60;122.00;;;5.80;99.90;;;;;;6132830;23;20146;-85
2022/01/09 06:02:44;;;;;;;156.13;141.93;;;5.80;99.90;;;;;;6132456;23;20138;-85
2022/01/09 06:05:12;;;;;;;91.50;70.80;;;5.80;99.90;;;;;;6132202;23;20173;-85
2022/01/09 06:07:40;;;;;;;98.53;87.63;;;5.70;99.90;;;;;;6106807;23;20382;-85
2022/01/09 06:10:10;;;;;;;100.82;75.65;;;5.80;99.90;;;;;;6132002;23;20147;-85
2022/01/09 06:12:36;;;;;;;108.60;88.68;;;5.80;99.90;;;;;;6107269;23;20181;-85
2022/01/09 06:15:07;;;;;;;96.97;68.80;;;5.80;99.90;;;;;;6107124;23;20237;-85
2022/01/09 06:17:37;;;;;;;97.70;65.72;;;5.80;99.90;;;;;;6132700;23;20139;-85
2022/01/09 06:20:04;;;;;;;93.55;68.22;;;5.80;99.90;;;;;;6131003;23;20138;-85
2022/01/09 06:22:30;;;;;;;96.80;65.50;;;5.80;99.90;;;;;;6104970;23;20221;-85
2022/01/09 06:24:56;;;;;;;91.07;68.10;;;5.80;99.90;;;;;;6130271;23;20174;-84
2022/01/09 06:27:21;;;;;;;104.87;77.60;;;5.80;99.90;;;;;;6104237;23;20174;-85
2022/01/09 06:29:48;;;;;;;95.70;60.23;;;5.80;99.90;;;;;;6105614;23;20163;-84
2022/01/09 06:32:14;;;;;;;94.35;65.38;;;5.80;99.90;;;;;;6106474;23;20217;-85
2022/01/09 06:34:43;;;;;;;88.60;54.27;;;5.80;99.90;;;;;;6131710;23;20186;-85
2022/01/09 06:37:10;;;;;;;90.88;53.85;;;5.80;99.90;;;;;;6131685;23;20143;-85
2022/01/09 06:39:36;;;;;;;87.95;54.45;;;5.80;99.90;;;;;;6132047;23;20142;-85
2022/01/09 06:42:02;;;;;;;88.10;60.47;;;5.80;99.90;;;;;;6132360;23;20143;-85
2022/01/09 06:44:28;;;;;;;85.78;46.60;;;5.80;99.90;;;;;;6131987;23;20418;-85
2022/01/09 06:46:54;;;;;;;90.57;50.10;;;5.80;99.90;;;;;;6132106;23;20182;-85
2022/01/09 06:49:19;;;;;;;94.47;41.37;;;5.80;99.90;;;;;;6132184;23;20481;-85
2022/01/09 06:51:45;;;;;;;79.20;32.67;;;5.80;99.90;;;;;;6105807;23;20155;-84
2022/01/09 06:54:13;;;;;;;80.20;33.20;;;5.80;99.90;;;;;;6131082;23;20174;-84
2022/01/09 06:56:39;;;;;;;79.10;30.42;;;5.80;99.90;;;;;;6105629;23;20146;-85
2022/01/09 06:59:05;;;;;;;81.50;37.97;;;5.80;99.90;;;;;;6105879;23;20593;-84
2022/01/09 07:01:31;;;;;;;86.78;30.30;;;5.80;99.90;;;;;;6106101;23;20604;-84
2022/01/09 07:03:57;;;;;;;85.13;34.40;;;5.80;99.90;;;;;;6131616;23;20170;-84
2022/01/09 07:06:22;;;;;;;101.77;52.60;;;5.80;99.90;;;;;;6131590;23;20366;-83
2022/01/09 07:08:48;;;;;;;87.53;37.77;;;5.80;99.90;;;;;;6130778;23;20143;-82
2022/01/09 07:11:14;;;;;;;86.87;33.27;;;5.80;99.90;;;;;;6105395;23;20178;-83
2022/01/09 07:13:40;;;;;;;84.95;35.80;;;5.80;99.90;;;;;;6105198;23;20182;-84
2022/01/09 07:16:06;;;;;;;84.63;38.57;;;5.70;99.90;;;;;;6105169;23;20735;-84
2022/01/09 07:18:31;;;;;;;90.77;38.67;;;5.80;99.90;;;;;;6105050;23;20197;-83
2022/01/09 07:21:01;;;;;;;89.73;33.50;;;5.80;99.90;;;;;;6131049;23;20373;-84
2022/01/09 07:23:30;;;;;;;87.30;37.88;;;5.80;99.90;;;;;;6075662;23;20175;-84
2022/01/09 07:25:58;;;;;;;86.82;34.53;;;5.80;99.90;;;;;;6102066;23;20147;-84
2022/01/09 07:28:33;;;;;;;83.90;32.30;;;5.80;99.90;;;;;;6101899;23;20187;-84
2022/01/09 07:31:01;;;;;;;81.15;35.15;;;5.80;99.90;;;;;;6075792;23;20158;-84
2022/01/09 07:34:09;;;;;;;85.88;44.78;;;5.80;99.90;;;;;;6075276;23;20207;-84
2022/01/09 07:36:24;;;;;;;79.45;31.77;;;5.70;99.90;;;;;;6086561;23;20162;-84
2022/01/09 07:38:53;;;;;;;85.53;35.55;;;5.70;99.90;;;;;;6102119;23;20122;-84
2022/01/09 07:41:40;;;;;;;89.00;35.47;;;5.70;99.90;;;;;;6101901;23;20139;-85
2022/01/09 07:44:14;;;;;;;88.47;34.95;;;5.70;99.90;;;;;;6101813;23;20163;-84
2022/01/09 07:46:39;;;;;;;100.03;57.78;;;5.70;99.90;;;;;;6102054;23;20128;-85
2022/01/09 07:49:10;;;;;;;83.17;37.00;;;5.70;99.90;;;;;;6076568;23;20151;-84
2022/01/09 07:51:51;;;;;;;85.10;42.33;;;5.70;99.90;;;;;;6102007;23;20154;-84
2022/01/09 07:54:34;;;;;;;77.80;31.23;;;5.70;99.90;;;;;;6102233;23;20202;-84
2022/01/09 07:57:17;;;;;;;83.18;41.10;;;5.70;99.90;;;;;;6076197;23;20226;-85
2022/01/09 08:00:07;;;;;;;;;;;;;;;;;;;;;
2022/01/09 08:02:55;;;;;;;91.85;43.63;;;5.60;99.90;;;;;;6102328;23;20210;-84
2022/01/09 08:05:24;;;;;;;82.20;29.98;;;5.60;99.90;;;;;;6065987;23;20195;-84
2022/01/09 08:07:56;;;;;;;84.85;41.13;;;5.70;99.90;;;;;;6076233;23;20143;-84
2022/01/09 08:10:27;;;;;;;98.28;53.55;;;5.70;99.90;;;;;;6102586;23;20206;-84
2022/01/09 08:12:52;;;;;;;81.75;36.65;;;5.70;99.90;;;;;;6101953;23;20143;-84
2022/01/09 08:15:46;;;;;;;84.77;52.83;;;5.70;99.90;;;;;;6101354;23;20167;-84
2022/01/09 08:18:18;;;;;;;81.07;40.58;;;5.70;99.90;;;;;;6101765;23;20470;-84
2022/01/09 08:20:44;;;;;;;82.03;40.70;;;5.70;99.90;;;;;;6076731;23;20150;-84
2022/01/09 08:23:09;;;;;;;92.07;52.43;;;5.70;99.90;;;;;;6127310;23;20174;-84
2022/01/09 08:25:37;;;;;;;87.70;47.57;;;5.70;99.90;;;;;;6130776;23;20460;-84
2022/01/09 08:28:14;;;;;;;83.63;42.00;;;5.70;99.90;;;;;;6130878;23;20149;-85
2022/01/09 08:30:46;;;;;;;87.80;46.03;;;5.70;99.90;;;;;;6130930;23;20130;-84
2022/01/09 08:33:23;;;;;;;79.55;34.55;;;5.60;99.90;;;;;;6104907;23;20229;-84
2022/01/09 08:36:16;;;;;;;86.05;35.20;;;5.60;99.90;;;;;;6130621;23;20127;-84
2022/01/09 08:38:50;;;;;;;86.88;40.40;;;5.70;99.90;;;;;;6054267;23;20142;-84
2022/01/09 08:41:19;;;;;;;83.97;45.97;;;5.70;99.90;;;;;;6130899;23;20142;-84
2022/01/09 08:43:50;;;;;;;82.68;44.78;;;5.70;99.90;;;;;;6130113;23;20245;-84
2022/01/09 08:46:22;;;;;;;83.82;47.25;;;5.70;99.90;;;;;;6130852;23;20225;-84
2022/01/09 08:48:48;;;;;;;84.82;37.50;;;5.70;99.90;;;;;;6131448;23;20131;-85
2022/01/09 08:51:36;;;;;;;84.78;46.30;;;5.70;99.90;;;;;;6130769;23;20174;-84
2022/01/09 08:54:10;;;;;;;100.38;58.25;;;5.80;99.90;;;;;;6131292;23;20174;-86
2022/01/09 08:57:03;;;;;;;83.60;45.70;;;5.80;99.90;;;;;;6131274;23;20501;-84
2022/01/09 08:59:29;;;;;;;85.68;48.30;;;5.80;99.90;;;;;;6126131;23;20153;-84
2022/01/09 09:01:59;;;;;;;86.77;54.63;;;5.80;99.90;;;;;;6130562;23;20143;-84
2022/01/09 09:04:27;;;;;;;85.05;48.00;;;5.70;99.90;;;;;;6131044;23;20198;-84
2022/01/09 09:06:53;;;;;;;84.70;48.50;;;5.70;99.90;;;;;;6105215;23;20198;-84
2022/01/09 09:09:38;;;;;;;88.83;57.37;;;5.80;99.90;;;;;;6130444;23;20142;-84
2022/01/09 09:12:08;;;;;;;96.07;66.93;;;5.80;99.90;;;;;;6130948;23;20147;-84
2022/01/09 09:14:43;;;;;;;98.38;71.90;;;5.80;99.90;;;;;;6130802;23;20178;-84
2022/01/09 09:17:16;;;;;;;98.25;71.45;;;5.80;99.90;;;;;;6130060;23;20154;-83
2022/01/09 09:19:48;;;;;;;86.35;50.78;;;5.80;99.90;;;;;;6106434;23;20134;-84
2022/01/09 09:22:45;;;;;;;88.85;63.60;;;5.80;99.90;;;;;;6130775;23;20161;-84
2022/01/09 09:25:21;;;;;;;85.78;46.88;;;5.80;99.90;;;;;;6127507;23;20170;-84
2022/01/09 09:28:16;;;;;;;95.82;61.10;;;5.80;99.90;;;;;;6106969;23;20138;-85
2022/01/09 09:30:50;;;;;;;92.95;56.80;;;5.80;99.90;;;;;;6105323;23;20139;-84
2022/01/09 09:33:47;;;;;;;89.03;59.42;;;5.80;99.90;;;;;;6131503;23;20166;-85
2022/01/09 09:36:21;;;;;;;87.97;51.47;;;5.80;99.90;;;;;;6105441;23;20165;-84
2022/01/09 09:38:49;;;;;;;85.85;50.75;;;5.70;99.90;;;;;;6105158;23;20146;-84
2022/01/09 09:41:57;;;;;;;;;;;;;;;;;;;;;
2022/01/09 09:45:07;;;;;;;87.32;57.25;;;5.80;99.90;;;;;;6113941;23;20241;-85
2022/01/09 09:48:06;;;;;;;85.65;53.25;;;5.80;99.90;;;;;;5988739;23;20470;-84
2022/01/09 09:50:57;;;;;;;104.57;86.47;;;5.90;99.90;;;;;;5996125;23;20157;-84
2022/01/09 09:54:25;;;;;;;85.38;49.72;;;5.90;99.90;;;;;;6061569;23;20231;-84
2022/01/09 09:57:30;;;;;;;85.65;50.83;;;5.90;99.90;;;;;;6119412;23;20168;-84
2022/01/09 10:00:43;;;;;;;92.10;60.28;;;6.00;99.90;;;;;;6131497;23;20205;-85
2022/01/09 10:04:12;;;;;;;91.03;59.35;;;6.10;99.90;;;;;;6113783;23;20206;-87
2022/01/09 10:10:16;;;;;;;83.45;48.08;;;6.30;99.90;;;;;;5973355;23;20223;-84
2022/01/09 10:13:25;;;;;;;;;;;;;;;;;;;;;
2022/01/09 10:16:15;;;;;;;;;;;;;;;;;;;;;
2022/01/09 10:19:12;;;;;;;;;;;;;;;;;;;;;
2022/01/09 10:22:12;;;;;;;79.20;24.83;;;6.30;99.90;;;;;;6134892;23;20209;-84
2022/01/09 10:29:09;;;;;;;77.57;19.13;;;6.40;99.90;;;;;;6102850;23;20147;-84
2022/01/09 10:32:17;;;;;;;78.10;18.23;;;6.40;99.90;;;;;;6079114;23;20147;-84
2022/01/09 10:35:25;;;;;;;77.40;20.70;;;6.40;99.90;;;;;;6100859;23;20289;-84
2022/01/09 10:38:39;;;;;;;78.20;27.55;;;6.40;99.90;;;;;;6045419;23;20169;-84
2022/01/09 10:53:03;;;;;;;;;;;;;;;;;;;;;
2022/01/09 10:56:25;;;;;;;;;;;;;;;;;;;;;
2022/01/09 11:00:15;;;;;;;79.78;20.63;;;6.60;99.90;;;;;;5845408;24;20236;-86
2022/01/09 11:13:25;;;;;;;81.63;29.20;;;6.40;99.90;;;;;;6016024;23;20519;-85
2022/01/09 11:16:54;;;;;;;;;;;;;;;;;;;;;
2022/01/09 11:26:18;;;;;;;83.82;35.25;;;6.30;99.90;;;;;;6135063;23;20217;-87
2022/01/09 11:29:51;;;;;;;80.05;32.58;;;6.30;99.90;;;;;;6067954;23;20225;-86
2022/01/09 11:37:27;;;;;;;93.50;62.42;;;6.20;99.90;;;;;;5984186;23;20557;-86
2022/01/09 11:40:36;;;;;;;;;;;;;;;;;;;;;
2022/01/09 11:44:14;;;;;;;;;;;;;;;;;;;;;
2022/01/09 11:50:41;;;;;;;;;;;;;;;;;;;;;
2022/01/09 11:54:07;;;;;;;91.25;66.88;;;6.10;99.90;;;;;;6030957;23;20232;-86
2022/01/09 11:57:18;;;;;;;94.18;60.78;;;6.20;99.90;;;;;;6041508;23;20156;-85
2022/01/09 12:07:40;;;;;;;88.07;50.40;;;6.60;99.90;;;;;;5824607;24;20524;-85
2022/01/09 12:11:00;;;;;;;;;;;;;;;;;;;;;
2022/01/09 12:14:16;;;;;;;87.05;49.67;;;6.70;99.90;;;;;;6041330;23;20331;-85
2022/01/09 12:17:37;;;;;;;;;;;;;;;;;;;;;
2022/01/09 12:21:45;;;;;;;90.53;54.72;;;6.60;99.90;;;;;;6102162;23;20178;-85
2022/01/09 12:24:18;;;;;;;;;;;;;;;;;;;;;
2022/01/09 12:30:22;;;;;;;85.65;43.75;;;6.60;99.90;;;;;;6050662;23;20165;-86
2022/01/09 12:32:57;;;;;;;78.90;19.40;;;6.60;99.90;;;;;;6079996;23;20170;-85
2022/01/09 12:39:03;;;;;;;75.47;15.23;;;6.70;99.90;;;;;;5987235;23;20158;-86
2022/01/09 12:42:47;;;;;;;78.97;15.60;;;6.70;99.90;;;;;;6078719;23;20593;-86
2022/01/09 12:45:49;;;;;;;77.65;16.17;;;6.70;99.90;;;;;;6043425;23;20172;-86
2022/01/09 12:48:56;;;;;;;74.78;16.80;;;6.70;99.90;;;;;;6041093;23;20145;-86
2022/01/09 12:52:10;;;;;;;;;;;;;;;;;;;;;
2022/01/09 12:55:26;;;;;;;78.32;20.00;;;6.90;99.90;;;;;;6013891;23;20217;-85
2022/01/09 12:58:14;;;;;;;;;;;;;;;;;;;;;
2022/01/09 13:06:35;;;;;;;85.72;36.90;;;6.80;99.90;;;;;;6163573;23;20165;-86
2022/01/09 13:09:53;;;;;;;83.40;32.25;;;6.80;99.90;;;;;;6145252;23;20172;-87
2022/01/09 13:12:24;;;;;;;77.18;22.27;;;6.80;99.90;;;;;;6137427;23;20149;-86
2022/01/09 13:15:16;;;;;;;82.80;34.47;;;6.80;99.90;;;;;;6164294;23;20223;-87
2022/01/09 13:18:01;;;;;;;84.30;45.08;;;6.90;99.90;;;;;;6148596;23;20152;-87
2022/01/09 13:23:58;;;;;;;80.47;25.83;;;6.90;99.90;;;;;;6152583;23;20292;-88
2022/01/09 13:27:08;;;;;;;77.40;25.15;;;6.80;99.90;;;;;;6126399;23;20469;-87
2022/01/09 13:29:39;;;;;;;80.57;23.10;;;6.80;99.90;;;;;;6097486;23;20143;-88
2022/01/09 13:32:08;;;;;;;75.05;20.45;;;6.80;99.90;;;;;;6099839;23;20229;-88
2022/01/09 13:34:40;;;;;;;78.10;16.02;;;6.90;99.90;;;;;;6126370;23;20191;-88
2022/01/09 13:37:13;;;;;;;76.90;18.70;;;6.90;99.90;;;;;;6100467;23;20154;-87
2022/01/09 13:39:53;;;;;;;78.15;20.30;;;6.90;99.90;;;;;;6130303;23;20599;-87
2022/01/09 13:42:37;;;;;;;75.63;13.90;;;6.90;99.90;;;;;;6105465;23;20150;-88
2022/01/09 13:45:25;;;;;;;;;;;;;;;;;;;;;
2022/01/09 13:48:42;;;;;;;71.00;9.88;;;7.20;99.90;;;;;;6125851;23;20234;-87
2022/01/09 13:50:49;;;;;;;73.07;14.07;;;7.30;99.90;;;;;;6122522;23;20226;-88
2022/01/09 13:53:24;;;;;;;84.65;19.35;;;7.30;99.90;;;;;;6103673;23;20229;-88
2022/01/09 13:55:58;;;;;;;74.88;21.10;;;7.40;99.90;;;;;;6098354;23;20602;-88
2022/01/09 13:58:48;;;;;;;78.38;32.95;;;7.40;99.90;;;;;;6103183;23;20536;-88
2022/01/09 14:01:50;;;;;;;81.05;27.20;;;7.50;99.90;;;;;;6103263;23;20143;-88
2022/01/09 14:04:46;;;;;;;74.55;21.02;;;7.50;99.90;;;;;;6093520;23;20266;-88
2022/01/09 14:07:25;;;;;;;71.93;13.05;;;7.40;99.90;;;;;;6127523;23;20151;-88
2022/01/09 14:09:59;;;;;;;75.60;11.65;;;7.40;99.90;;;;;;6128476;23;20461;-88
2022/01/09 14:12:32;;;;;;;72.32;14.52;;;7.40;99.90;;;;;;6102296;23;20153;-87
2022/01/09 14:15:21;;;;;;;73.63;13.52;;;7.20;99.90;;;;;;6101816;23;20190;-88
2022/01/09 14:18:24;;;;;;;74.15;14.27;;;7.20;99.90;;;;;;6128523;23;20146;-88
2022/01/09 14:21:18;;;;;;;79.20;19.40;;;7.10;99.90;;;;;;6127948;23;20148;-88
2022/01/09 14:24:32;;;;;;;71.80;17.02;;;7.10;99.90;;;;;;6082451;23;20178;-88
2022/01/09 14:27:15;;;;;;;85.38;22.08;;;7.00;99.90;;;;;;6080337;23;20222;-88
2022/01/09 14:29:43;;;;;;;75.72;14.80;;;6.90;99.90;;;;;;6128135;23;20185;-88
2022/01/09 14:32:43;;;;;;;;;;;;;;;;;;;;;
2022/01/09 14:35:34;;;;;;;86.97;30.17;;;6.90;99.90;;;;;;6128143;23;20249;-89
2022/01/09 14:38:22;;;;;;;76.07;25.23;;;6.80;99.90;;;;;;6102406;23;20206;-88
2022/01/09 14:40:53;;;;;;;77.60;22.70;;;6.70;99.90;;;;;;6128722;23;20201;-88
2022/01/09 14:45:54;;;;;;;76.43;25.25;;;6.80;99.90;;;;;;6127714;23;20194;-88
2022/01/09 14:48:54;;;;;;;80.93;29.35;;;6.80;99.90;;;;;;6101290;23;20489;-88
2022/01/09 14:52:24;;;;;;;78.50;23.73;;;6.90;99.90;;;;;;6085967;23;20146;-88
2022/01/09 14:55:10;;;;;;;77.07;24.98;;;6.90;99.90;;;;;;6088936;23;20213;-88
2022/01/09 14:57:52;;;;;;;84.50;30.02;;;7.00;99.90;;;;;;6101955;23;20632;-88
2022/01/09 15:00:41;;;;;;;;;;;;;;;;;;;;;
2022/01/09 15:03:16;;;;;;;77.00;18.83;;;6.90;99.90;;;;;;6128597;23;20628;-88